Time;durP1;ratioP1;P1;durP2;ratioP2;P2;SDS_P1;SDS_P2;PMS_P1;PMS_P2;Temp;Humidity;BMP_temperature;BMP_pressure;BME280_temperature;BME280_humidity;BME280_pressure;Samples;Min_cycle;Max_cycle;Signal;HPM_P1;HPM_P2
2024/01/22 00:01:18;;;;;;;3.78;1.85;;;10.80;74.00;;;;;;5088722;28;20055;-50
2024/01/22 00:03:47;;;;;;;3.20;2.20;;;10.90;74.10;;;;;;5088595;28;20047;-53
2024/01/22 00:06:16;;;;;;;3.42;2.22;;;10.90;74.10;;;;;;5091602;28;20640;-54
2024/01/22 00:08:45;;;;;;;4.50;2.38;;;11.00;74.10;;;;;;5089197;28;20125;-54
2024/01/22 00:11:20;;;;;;;3.80;2.08;;;11.00;74.00;;;;;;5087275;28;20048;-52
2024/01/22 00:13:49;;;;;;;2.15;1.92;;;11.00;74.00;;;;;;5087111;28;20071;-53
2024/01/22 00:16:16;;;;;;;5.47;2.00;;;11.00;73.80;;;;;;5089053;28;20136;-53
2024/01/22 00:18:42;;;;;;;3.88;1.85;;;11.10;73.80;;;;;;5084637;28;20033;-52
2024/01/22 00:21:16;;;;;;;2.72;1.90;;;11.10;73.80;;;;;;5090813;28;20569;-54
2024/01/22 00:23:45;;;;;;;2.75;2.17;;;11.20;73.70;;;;;;5087645;28;20078;-53
2024/01/22 00:26:14;;;;;;;3.38;2.00;;;11.20;73.60;;;;;;5090047;28;20060;-53
2024/01/22 00:28:43;;;;;;;3.42;2.00;;;11.20;73.50;;;;;;5090836;28;20050;-54
2024/01/22 00:31:12;;;;;;;3.50;2.05;;;11.20;73.50;;;;;;5085059;28;20032;-52
2024/01/22 00:33:44;;;;;;;5.65;1.92;;;11.40;73.50;;;;;;5085118;28;20064;-51
2024/01/22 00:36:17;;;;;;;2.40;2.00;;;11.30;73.30;;;;;;5078349;28;20036;-51
2024/01/22 00:38:43;;;;;;;;;;;11.30;73.30;;;;;;5077773;28;20059;-51
2024/01/22 00:41:12;;;;;;;1.85;1.40;;;11.30;73.30;;;;;;5078663;28;20188;-54
2024/01/22 00:43:43;;;;;;;3.20;2.15;;;11.30;73.00;;;;;;5085590;28;21098;-53
2024/01/22 00:46:10;;;;;;;2.67;1.67;;;11.40;73.00;;;;;;5085956;28;20058;-54
2024/01/22 00:48:38;;;;;;;2.22;1.38;;;11.30;73.00;;;;;;5084837;28;20040;-52
2024/01/22 00:51:07;;;;;;;3.05;1.90;;;11.30;73.00;;;;;;5086783;28;20064;-51
2024/01/22 00:53:34;;;;;;;2.08;1.55;;;11.30;72.90;;;;;;5088659;28;20082;-51
2024/01/22 00:56:01;;;;;;;2.03;1.88;;;11.40;73.00;;;;;;5090389;28;20569;-53
2024/01/22 00:58:35;;;;;;;3.50;1.85;;;11.40;72.90;;;;;;5090220;28;20071;-53
2024/01/22 01:01:05;;;;;;;2.55;1.98;;;11.40;72.90;;;;;;5085553;28;20760;-54
2024/01/22 01:03:35;;;;;;;2.47;1.60;;;11.40;72.80;;;;;;5087605;28;20483;-54
2024/01/22 01:06:01;;;;;;;2.88;1.70;;;11.40;72.70;;;;;;5090265;28;20119;-53
2024/01/22 01:08:33;;;;;;;3.50;1.98;;;11.40;72.70;;;;;;5089970;28;20052;-53
2024/01/22 01:11:04;;;;;;;1.55;1.45;;;11.40;72.70;;;;;;5089177;28;20582;-54
2024/01/22 01:13:32;;;;;;;2.55;1.58;;;11.50;72.70;;;;;;5090291;28;20047;-52
2024/01/22 01:16:01;;;;;;;3.28;1.55;;;11.50;72.70;;;;;;5089630;28;20043;-53
2024/01/22 01:18:30;;;;;;;2.72;1.70;;;11.50;72.50;;;;;;5089635;28;20085;-53
2024/01/22 01:21:01;;;;;;;2.75;1.90;;;11.50;72.50;;;;;;5087334;28;20057;-52
2024/01/22 01:23:33;;;;;;;2.35;1.70;;;11.50;72.50;;;;;;5101643;28;20047;-54
2024/01/22 01:26:07;;;;;;;2.35;1.83;;;11.50;72.40;;;;;;5090096;28;20044;-53
2024/01/22 01:28:36;;;;;;;1.40;1.30;;;11.50;72.40;;;;;;5089099;28;20167;-54
2024/01/22 01:31:07;;;;;;;2.08;1.58;;;11.50;72.20;;;;;;5088699;28;20043;-53
2024/01/22 01:33:35;;;;;;;3.50;1.42;;;11.50;72.20;;;;;;5083924;28;20046;-52
2024/01/22 01:36:09;;;;;;;2.60;1.25;;;11.60;72.20;;;;;;5073754;28;20508;-52
2024/01/22 01:38:39;;;;;;;2.42;1.23;;;11.60;72.20;;;;;;5081384;28;20113;-53
2024/01/22 01:41:06;;;;;;;2.60;1.25;;;11.60;72.20;;;;;;5087842;28;20058;-52
2024/01/22 01:43:38;;;;;;;1.65;1.13;;;11.60;72.10;;;;;;5088679;28;20036;-52
2024/01/22 01:46:06;;;;;;;1.67;1.23;;;11.60;72.10;;;;;;5089711;28;20036;-51
2024/01/22 01:48:33;;;;;;;2.05;1.00;;;11.60;72.00;;;;;;5099992;28;20409;-52
2024/01/22 01:51:02;;;;;;;2.00;1.80;;;11.60;72.00;;;;;;5083183;28;20042;-54
2024/01/22 01:53:35;;;;;;;2.25;1.20;;;11.70;72.10;;;;;;5085064;28;20066;-53
2024/01/22 01:56:02;;;;;;;2.28;1.40;;;11.60;72.00;;;;;;5089477;28;20097;-52
2024/01/22 01:58:28;;;;;;;3.15;1.40;;;11.70;72.00;;;;;;5088747;28;20040;-53
2024/01/22 02:00:57;;;;;;;1.23;1.10;;;11.70;72.00;;;;;;5075147;28;20621;-52
2024/01/22 02:03:29;;;;;;;3.00;1.23;;;11.70;71.90;;;;;;5086720;28;20401;-52
2024/01/22 02:06:00;;;;;;;1.83;1.02;;;11.70;71.90;;;;;;5086402;28;20050;-50
2024/01/22 02:08:26;;;;;;;1.48;1.23;;;11.70;71.90;;;;;;5089310;28;20109;-50
2024/01/22 02:10:56;;;;;;;2.00;1.40;;;11.70;71.80;;;;;;5087992;28;20060;-53
2024/01/22 02:13:24;;;;;;;1.60;1.50;;;11.80;71.80;;;;;;5078652;28;20567;-53
2024/01/22 02:15:54;;;;;;;1.15;1.08;;;11.80;71.80;;;;;;5080207;28;20119;-53
2024/01/22 02:18:31;;;;;;;1.55;1.13;;;11.80;71.70;;;;;;5075733;28;20049;-53
2024/01/22 02:20:59;;;;;;;1.35;1.25;;;11.90;71.70;;;;;;5086465;28;20443;-53
2024/01/22 02:23:31;;;;;;;1.63;1.02;;;11.90;71.70;;;;;;5088090;28;20051;-53
2024/01/22 02:25:57;;;;;;;1.42;1.10;;;11.90;71.70;;;;;;5088963;28;20040;-54
2024/01/22 02:28:33;;;;;;;1.58;1.13;;;11.90;71.70;;;;;;5089237;28;20111;-53
2024/01/22 02:31:01;;;;;;;2.38;1.25;;;11.90;71.70;;;;;;5086894;28;20429;-53
2024/01/22 02:33:35;;;;;;;2.50;1.33;;;11.90;71.90;;;;;;5090919;28;20113;-53
2024/01/22 02:36:06;;;;;;;2.85;1.50;;;11.90;71.90;;;;;;5090702;28;20044;-53
2024/01/22 02:38:35;;;;;;;3.72;1.20;;;11.90;71.80;;;;;;5093187;28;20108;-54
2024/01/22 02:41:02;;;;;;;1.52;1.35;;;11.90;71.90;;;;;;5092198;28;20047;-54
2024/01/22 02:43:35;;;;;;;2.28;1.30;;;11.90;72.00;;;;;;5092776;28;20113;-52
2024/01/22 02:46:01;;;;;;;2.25;1.10;;;12.00;72.20;;;;;;5092897;28;20056;-54
2024/01/22 02:48:35;;;;;;;1.42;1.30;;;12.00;72.20;;;;;;5091848;28;20042;-52
2024/01/22 02:51:10;;;;;;;1.30;1.20;;;12.00;72.30;;;;;;5089147;28;20651;-52
2024/01/22 02:53:39;;;;;;;2.10;1.17;;;12.00;72.40;;;;;;5091772;28;20036;-54
2024/01/22 02:56:06;;;;;;;1.25;1.02;;;12.10;72.50;;;;;;5092317;28;20468;-53
2024/01/22 02:58:35;;;;;;;1.45;1.27;;;12.10;72.40;;;;;;5092218;28;20124;-53
2024/01/22 03:01:02;;;;;;;2.65;1.10;;;12.10;72.50;;;;;;5089155;28;20502;-52
2024/01/22 03:03:33;;;;;;;1.13;1.08;;;12.10;72.50;;;;;;5092636;28;20040;-54
2024/01/22 03:06:05;;;;;;;1.15;1.05;;;12.20;72.50;;;;;;5092235;28;20054;-51
2024/01/22 03:08:34;;;;;;;3.33;1.20;;;12.20;72.50;;;;;;5092002;28;20156;-54
2024/01/22 03:11:06;;;;;;;3.17;1.08;;;12.20;72.50;;;;;;5089645;28;20125;-53
2024/01/22 03:13:38;;;;;;;2.40;1.00;;;12.20;72.50;;;;;;5084766;28;20051;-51
2024/01/22 03:16:08;;;;;;;1.85;1.08;;;12.30;72.60;;;;;;5078086;28;20037;-51
2024/01/22 03:18:37;;;;;;;1.13;1.00;;;12.30;72.70;;;;;;5080095;28;20608;-53
2024/01/22 03:21:09;;;;;;;2.63;1.00;;;12.30;72.60;;;;;;5077044;28;20115;-53
2024/01/22 03:23:43;;;;;;;1.27;0.90;;;12.30;72.70;;;;;;5089828;28;20048;-52
2024/01/22 03:26:23;;;;;;;1.05;0.88;;;12.30;72.90;;;;;;5086070;28;20123;-52
2024/01/22 03:28:54;;;;;;;1.33;0.90;;;12.40;73.20;;;;;;5091502;28;20638;-54
2024/01/22 03:31:28;;;;;;;1.65;0.75;;;12.40;73.20;;;;;;5090190;28;20093;-54
2024/01/22 03:34:00;;;;;;;1.58;1.00;;;12.30;73.20;;;;;;5088545;28;20033;-50
2024/01/22 03:36:27;;;;;;;1.10;0.80;;;12.30;73.40;;;;;;5091204;28;20126;-51
2024/01/22 03:38:56;;;;;;;1.27;0.90;;;12.30;73.50;;;;;;5090281;28;20062;-53
2024/01/22 03:41:23;;;;;;;1.05;0.95;;;12.30;73.60;;;;;;5089568;28;20131;-51
2024/01/22 03:43:49;;;;;;;1.75;0.90;;;12.30;73.70;;;;;;5090158;28;20114;-52
2024/01/22 03:46:18;;;;;;;1.88;0.80;;;12.30;73.80;;;;;;5091890;28;20047;-53
2024/01/22 03:48:57;;;;;;;1.17;0.68;;;12.30;73.90;;;;;;5091110;28;20074;-54
2024/01/22 03:51:26;;;;;;;0.57;0.57;;;12.30;74.10;;;;;;5082469;28;20567;-53
2024/01/22 03:53:53;;;;;;;1.13;0.82;;;12.30;74.20;;;;;;5089666;28;20497;-53
2024/01/22 03:56:28;;;;;;;1.02;0.80;;;12.30;74.30;;;;;;5091334;28;20036;-55
2024/01/22 03:58:55;;;;;;;1.58;0.98;;;12.30;75.10;;;;;;5090530;28;20064;-52
2024/01/22 04:01:24;;;;;;;1.35;0.93;;;12.30;74.70;;;;;;5084500;28;20086;-52
2024/01/22 04:03:53;;;;;;;2.00;1.08;;;12.30;74.80;;;;;;5090304;28;20048;-54
2024/01/22 04:06:23;;;;;;;1.92;0.90;;;12.30;75.10;;;;;;5090802;28;20044;-54
2024/01/22 04:08:49;;;;;;;1.23;0.98;;;12.20;75.10;;;;;;5089968;28;20052;-52
2024/01/22 04:11:17;;;;;;;0.90;0.70;;;12.20;75.20;;;;;;5087497;28;20036;-51
2024/01/22 04:13:46;;;;;;;0.80;0.70;;;12.20;75.40;;;;;;5083402;28;20043;-55
2024/01/22 04:16:23;;;;;;;2.88;0.80;;;12.20;75.50;;;;;;5075962;28;20032;-54
2024/01/22 04:18:52;;;;;;;1.52;0.63;;;12.10;75.60;;;;;;5076209;28;20127;-52
2024/01/22 04:21:19;;;;;;;1.92;0.90;;;12.10;75.90;;;;;;5077274;28;20047;-53
2024/01/22 04:23:47;;;;;;;1.13;0.98;;;12.10;75.90;;;;;;5089602;28;20044;-52
2024/01/22 04:26:14;;;;;;;1.52;0.73;;;12.10;76.00;;;;;;5091333;28;20101;-53
2024/01/22 04:28:44;;;;;;;0.80;0.77;;;12.10;76.20;;;;;;5088272;28;20105;-53
2024/01/22 04:31:12;;;;;;;0.98;0.85;;;12.10;76.20;;;;;;5087703;28;20040;-54
2024/01/22 04:33:47;;;;;;;1.65;0.70;;;12.10;76.30;;;;;;5089436;28;20448;-52
2024/01/22 04:36:16;;;;;;;1.08;0.80;;;12.10;76.40;;;;;;5084535;28;20124;-53
2024/01/22 04:38:45;;;;;;;0.85;0.75;;;12.10;76.20;;;;;;5087490;28;20436;-52
2024/01/22 04:41:19;;;;;;;0.80;0.80;;;12.10;76.20;;;;;;5087766;28;20119;-54
2024/01/22 04:43:51;;;;;;;0.80;0.80;;;12.10;76.30;;;;;;5079703;28;20094;-52
2024/01/22 04:46:18;;;;;;;0.73;0.70;;;12.10;76.10;;;;;;5090492;28;20101;-54
2024/01/22 04:48:48;;;;;;;1.00;0.82;;;12.10;76.20;;;;;;5088888;28;20116;-53
2024/01/22 04:51:15;;;;;;;1.95;0.57;;;12.20;76.20;;;;;;5086282;28;20105;-53
2024/01/22 04:53:41;;;;;;;1.52;0.77;;;12.20;76.20;;;;;;5089930;28;20461;-54
2024/01/22 04:56:08;;;;;;;0.70;0.70;;;12.20;76.00;;;;;;5090660;28;20472;-51
2024/01/22 04:58:37;;;;;;;1.23;0.73;;;12.20;76.10;;;;;;5090107;28;20067;-53
2024/01/22 05:01:08;;;;;;;1.90;0.55;;;12.30;76.20;;;;;;5088723;28;20553;-52
2024/01/22 05:03:34;;;;;;;2.38;0.50;;;12.30;76.30;;;;;;5090447;28;20050;-52
2024/01/22 05:06:03;;;;;;;0.80;0.80;;;12.30;76.40;;;;;;5089223;28;20048;-53
2024/01/22 05:08:33;;;;;;;1.73;1.30;;;12.40;76.40;;;;;;5090720;28;20115;-53
2024/01/22 05:11:09;;;;;;;1.50;1.05;;;12.40;76.40;;;;;;5085353;28;20047;-54
2024/01/22 05:13:51;;;;;;;1.52;0.93;;;12.40;76.60;;;;;;5090465;28;20044;-52
2024/01/22 05:16:19;;;;;;;0.88;0.80;;;12.40;76.80;;;;;;5090291;28;20119;-54
2024/01/22 05:18:50;;;;;;;1.02;0.93;;;12.40;76.50;;;;;;5088960;28;20125;-53
2024/01/22 05:21:21;;;;;;;0.98;0.70;;;12.40;76.60;;;;;;5089942;28;20460;-54
2024/01/22 05:23:49;;;;;;;0.88;0.70;;;12.40;76.60;;;;;;5089308;28;20077;-52
2024/01/22 05:26:23;;;;;;;1.17;1.00;;;12.50;76.60;;;;;;5090203;28;20043;-52
2024/01/22 05:28:52;;;;;;;1.80;1.00;;;12.50;76.50;;;;;;5079382;28;20047;-54
2024/01/22 05:31:19;;;;;;;1.48;0.68;;;12.50;76.30;;;;;;5077724;28;20107;-53
2024/01/22 05:33:46;;;;;;;1.25;0.68;;;12.60;76.40;;;;;;5077626;28;20406;-54
2024/01/22 05:36:13;;;;;;;1.20;0.70;;;12.60;76.10;;;;;;5089194;28;20088;-54
2024/01/22 05:38:42;;;;;;;1.00;0.70;;;12.60;76.10;;;;;;5085944;28;20048;-50
2024/01/22 05:41:09;;;;;;;2.72;0.70;;;12.70;76.00;;;;;;5088502;28;20036;-53
2024/01/22 05:43:36;;;;;;;0.50;0.50;;;12.70;76.00;;;;;;5088980;28;20036;-52
2024/01/22 05:46:03;;;;;;;1.65;0.50;;;12.70;76.00;;;;;;5088636;28;20046;-53
2024/01/22 05:48:29;;;;;;;0.85;0.43;;;12.80;75.90;;;;;;5084288;28;20047;-54
2024/01/22 05:50:56;;;;;;;0.43;0.40;;;12.80;75.80;;;;;;5085243;28;20065;-53
2024/01/22 05:53:23;;;;;;;0.60;0.40;;;12.80;75.90;;;;;;5083316;28;20039;-53
2024/01/22 05:55:50;;;;;;;0.50;0.40;;;12.80;75.90;;;;;;5088861;28;20067;-52
2024/01/22 05:58:17;;;;;;;0.50;0.50;;;12.80;75.70;;;;;;5089140;28;20033;-54
2024/01/22 06:00:44;;;;;;;0.40;0.32;;;12.80;75.60;;;;;;5082885;28;20036;-52
2024/01/22 06:03:11;;;;;;;1.52;0.40;;;12.80;75.60;;;;;;5084902;28;20063;-53
2024/01/22 06:05:38;;;;;;;0.30;0.30;;;12.80;75.60;;;;;;5080537;28;20040;-54
2024/01/22 06:08:05;;;;;;;0.57;0.38;;;12.90;75.70;;;;;;5088611;28;20129;-54
2024/01/22 06:10:32;;;;;;;0.30;0.30;;;12.90;75.60;;;;;;5086594;28;20037;-51
2024/01/22 06:12:58;;;;;;;0.35;0.28;;;12.90;75.50;;;;;;5083646;28;20055;-55
2024/01/22 06:15:26;;;;;;;1.02;0.70;;;12.90;75.50;;;;;;5081523;28;20051;-54
2024/01/22 06:17:57;;;;;;;0.40;0.40;;;13.00;75.50;;;;;;5082518;28;20038;-56
2024/01/22 06:20:24;;;;;;;0.43;0.30;;;13.00;75.60;;;;;;5083530;28;20105;-55
2024/01/22 06:22:53;;;;;;;0.60;0.50;;;13.00;75.70;;;;;;5078183;28;20106;-53
2024/01/22 06:25:22;;;;;;;1.05;0.30;;;13.00;75.70;;;;;;5085491;28;20067;-52
2024/01/22 06:27:49;;;;;;;0.32;0.30;;;13.10;75.60;;;;;;5083562;28;20047;-54
2024/01/22 06:30:21;;;;;;;0.30;0.30;;;13.10;75.40;;;;;;5078991;28;20111;-53
2024/01/22 06:32:53;;;;;;;0.52;0.40;;;13.10;75.60;;;;;;5075584;28;20051;-56
2024/01/22 06:35:19;;;;;;;1.50;0.63;;;13.10;75.60;;;;;;5081618;28;20406;-53
2024/01/22 06:37:51;;;;;;;0.35;0.35;;;13.10;75.60;;;;;;5087233;28;20681;-55
2024/01/22 06:40:19;;;;;;;0.40;0.40;;;13.00;76.20;;;;;;5080319;28;20048;-55
2024/01/22 06:42:46;;;;;;;0.70;0.45;;;13.00;75.80;;;;;;5084231;28;20097;-54
2024/01/22 06:45:14;;;;;;;0.60;0.43;;;13.00;76.00;;;;;;5081738;28;20040;-54
2024/01/22 06:47:43;;;;;;;0.63;0.50;;;13.00;76.10;;;;;;5087283;28;20048;-52
2024/01/22 06:50:14;;;;;;;0.50;0.43;;;13.00;76.30;;;;;;5079696;28;20048;-55
2024/01/22 06:52:52;;;;;;;0.55;0.55;;;13.00;76.40;;;;;;5087352;28;20528;-52
2024/01/22 06:55:23;;;;;;;1.13;0.68;;;13.00;76.50;;;;;;5081270;28;20055;-55
2024/01/22 06:57:50;;;;;;;0.68;0.60;;;12.90;76.30;;;;;;5086789;28;20067;-55
2024/01/22 07:00:19;;;;;;;0.45;0.40;;;12.90;76.30;;;;;;5082655;28;20497;-54
2024/01/22 07:02:49;;;;;;;0.80;0.45;;;13.00;76.40;;;;;;5080539;28;20604;-54
2024/01/22 07:05:16;;;;;;;1.55;0.45;;;13.00;76.30;;;;;;5086172;28;20063;-54
2024/01/22 07:07:46;;;;;;;0.73;0.60;;;13.00;76.30;;;;;;5080480;28;20052;-54
2024/01/22 07:10:13;;;;;;;0.40;0.35;;;13.00;76.30;;;;;;5083531;28;20040;-54
2024/01/22 07:12:42;;;;;;;0.38;0.38;;;13.00;76.30;;;;;;5082839;28;20533;-54
2024/01/22 07:15:15;;;;;;;0.57;0.40;;;13.10;76.20;;;;;;5085737;28;20064;-54
2024/01/22 07:17:44;;;;;;;0.95;0.70;;;13.10;76.30;;;;;;5089563;28;20040;-52
2024/01/22 07:20:14;;;;;;;0.55;0.40;;;13.10;76.20;;;;;;5087618;28;20052;-55
2024/01/22 07:22:52;;;;;;;3.00;0.75;;;13.20;76.20;;;;;;5086921;28;20032;-54
2024/01/22 07:25:22;;;;;;;0.40;0.40;;;13.20;76.20;;;;;;5088697;28;20036;-54
2024/01/22 07:27:54;;;;;;;0.88;0.70;;;13.30;76.10;;;;;;5092720;28;20047;-54
2024/01/22 07:30:21;;;;;;;0.60;0.60;;;13.30;76.10;;;;;;5089609;28;20075;-54
2024/01/22 07:32:48;;;;;;;2.10;0.65;;;13.40;76.10;;;;;;5087089;28;20090;-54
2024/01/22 07:35:17;;;;;;;1.75;0.95;;;13.40;76.00;;;;;;5090329;28;20063;-56
2024/01/22 07:37:47;;;;;;;0.90;0.60;;;13.50;76.10;;;;;;5092925;28;20437;-54
2024/01/22 07:40:14;;;;;;;0.50;0.40;;;13.50;76.00;;;;;;5089848;28;20531;-56
2024/01/22 07:42:51;;;;;;;0.52;0.43;;;13.60;75.90;;;;;;5086874;28;20063;-54
2024/01/22 07:45:20;;;;;;;0.60;0.55;;;13.60;75.80;;;;;;5087448;28;20031;-54
2024/01/22 07:47:54;;;;;;;2.05;0.80;;;13.60;75.70;;;;;;5091566;28;20040;-51
2024/01/22 07:50:22;;;;;;;0.80;0.77;;;13.60;75.80;;;;;;5086271;28;20056;-55
2024/01/22 07:52:53;;;;;;;0.95;0.55;;;13.60;75.70;;;;;;5092247;28;20085;-52
2024/01/22 07:55:33;;;;;;;5.07;0.77;;;13.70;75.80;;;;;;5091093;28;20047;-53
2024/01/22 07:58:05;;;;;;;0.77;0.60;;;13.70;75.70;;;;;;5082854;28;20028;-53
2024/01/22 08:00:33;;;;;;;0.45;0.40;;;13.70;75.70;;;;;;5090446;28;20489;-53
2024/01/22 08:03:04;;;;;;;2.00;0.52;;;13.70;75.60;;;;;;5086603;28;20040;-53
2024/01/22 08:05:32;;;;;;;1.13;0.65;;;13.70;75.60;;;;;;5092031;28;20097;-50
2024/01/22 08:08:09;;;;;;;2.15;0.77;;;13.70;75.60;;;;;;5092047;28;20044;-53
2024/01/22 08:10:37;;;;;;;1.45;0.60;;;13.70;75.60;;;;;;5090591;28;20409;-54
2024/01/22 08:13:04;;;;;;;2.17;0.70;;;13.70;75.60;;;;;;5086761;28;20044;-52
2024/01/22 08:15:30;;;;;;;0.77;0.57;;;13.60;75.50;;;;;;5085650;28;20038;-54
2024/01/22 08:17:57;;;;;;;0.98;0.98;;;13.60;75.50;;;;;;5083912;28;20036;-53
2024/01/22 08:20:24;;;;;;;1.08;0.60;;;13.60;75.60;;;;;;5089313;28;20115;-54
2024/01/22 08:22:58;;;;;;;1.95;0.75;;;13.60;75.60;;;;;;5086342;28;20054;-55
2024/01/22 08:25:31;;;;;;;1.90;0.40;;;13.60;75.60;;;;;;5084792;28;20047;-54
2024/01/22 08:28:01;;;;;;;1.00;0.60;;;13.60;75.60;;;;;;5090045;28;20123;-54
2024/01/22 08:30:30;;;;;;;0.90;0.40;;;13.60;75.60;;;;;;5087615;28;20040;-54
2024/01/22 08:32:58;;;;;;;2.65;0.52;;;13.60;75.50;;;;;;5086863;28;20060;-54
2024/01/22 08:35:26;;;;;;;0.60;0.50;;;13.60;75.50;;;;;;5091297;28;20044;-56
2024/01/22 08:37:59;;;;;;;2.13;1.20;;;13.60;75.50;;;;;;5089305;28;20038;-54
2024/01/22 08:40:26;;;;;;;2.42;0.75;;;13.60;75.50;;;;;;5089188;28;20128;-57
2024/01/22 08:42:55;;;;;;;0.73;0.63;;;13.70;75.50;;;;;;5088757;28;20067;-54
2024/01/22 08:45:22;;;;;;;0.95;0.77;;;13.70;75.40;;;;;;5091423;28;20051;-54
2024/01/22 08:47:50;;;;;;;0.60;0.60;;;13.70;75.40;;;;;;5104139;28;20133;-55
2024/01/22 08:50:21;;;;;;;1.35;0.68;;;13.70;75.50;;;;;;5088380;28;20151;-55
2024/01/22 08:52:57;;;;;;;0.80;0.70;;;13.70;75.50;;;;;;5084007;28;20115;-54
2024/01/22 08:55:23;;;;;;;1.02;0.52;;;13.70;75.40;;;;;;5085148;28;20592;-53
2024/01/22 08:57:53;;;;;;;2.10;1.08;;;13.70;75.40;;;;;;5087096;28;20405;-54
2024/01/22 09:00:22;;;;;;;1.63;0.80;;;13.70;76.00;;;;;;5084306;28;20070;-56
2024/01/22 09:02:50;;;;;;;1.35;0.90;;;13.70;75.30;;;;;;5086450;28;20127;-54
2024/01/22 09:05:17;;;;;;;2.33;1.08;;;13.70;75.40;;;;;;5090537;28;20055;-54
2024/01/22 09:07:46;;;;;;;3.72;1.70;;;13.70;75.50;;;;;;5090151;28;20077;-53
2024/01/22 09:10:13;;;;;;;1.17;1.02;;;13.70;75.50;;;;;;5081826;28;20474;-54
2024/01/22 09:12:40;;;;;;;2.58;1.17;;;13.70;75.50;;;;;;5084822;28;20093;-54
2024/01/22 09:15:11;;;;;;;2.25;0.82;;;13.80;75.50;;;;;;5086991;28;20505;-53
2024/01/22 09:17:38;;;;;;;3.45;1.17;;;13.80;75.50;;;;;;5091983;28;20051;-53
2024/01/22 09:20:06;;;;;;;4.70;1.20;;;13.80;75.40;;;;;;5079335;28;20095;-56
2024/01/22 09:22:33;;;;;;;1.23;0.82;;;13.80;75.40;;;;;;5086476;28;20036;-54
2024/01/22 09:25:00;;;;;;;2.97;0.88;;;13.80;75.30;;;;;;5090629;28;20375;-54
2024/01/22 09:27:29;;;;;;;1.25;0.90;;;13.90;75.20;;;;;;5087473;28;20044;-54
2024/01/22 09:29:56;;;;;;;2.47;0.90;;;13.90;75.00;;;;;;5085067;28;20044;-55
2024/01/22 09:32:25;;;;;;;3.08;1.30;;;14.00;74.80;;;;;;5101142;28;20051;-56
2024/01/22 09:34:52;;;;;;;3.67;2.15;;;14.00;74.60;;;;;;5082955;28;20131;-54
2024/01/22 09:37:21;;;;;;;4.28;1.58;;;14.10;74.50;;;;;;5088008;28;20056;-53
2024/01/22 09:39:50;;;;;;;4.43;1.45;;;14.20;74.40;;;;;;5086726;28;20071;-54
2024/01/22 09:42:17;;;;;;;4.28;1.60;;;14.20;74.30;;;;;;5085304;28;20068;-54
2024/01/22 09:44:46;;;;;;;3.20;1.60;;;14.30;74.10;;;;;;5090551;28;20038;-54
2024/01/22 09:47:13;;;;;;;7.82;1.80;;;14.30;73.90;;;;;;5088295;28;20535;-54
2024/01/22 09:49:40;;;;;;;2.63;1.10;;;14.40;73.70;;;;;;5087881;28;20039;-56
2024/01/22 09:52:14;;;;;;;7.20;1.90;;;14.50;73.60;;;;;;5088271;28;20390;-52
2024/01/22 09:54:42;;;;;;;5.18;1.55;;;14.60;73.50;;;;;;5085550;28;20043;-54
2024/01/22 09:57:15;;;;;;;6.85;2.03;;;14.60;73.10;;;;;;5089093;28;20040;-57
2024/01/22 09:59:43;;;;;;;5.47;1.48;;;14.70;72.80;;;;;;5081154;28;20114;-53
2024/01/22 10:02:18;;;;;;;3.20;1.50;;;14.70;72.60;;;;;;5084398;28;20545;-54
2024/01/22 10:04:45;;;;;;;3.55;1.35;;;14.80;72.40;;;;;;5087816;28;20058;-55
2024/01/22 10:07:14;;;;;;;6.68;2.35;;;14.80;72.30;;;;;;5085256;28;20079;-56
2024/01/22 10:09:42;;;;;;;5.03;1.50;;;14.90;72.20;;;;;;5088985;28;20089;-56
2024/01/22 10:12:09;;;;;;;4.15;1.48;;;14.90;72.00;;;;;;5086076;28;20043;-49
2024/01/22 10:14:41;;;;;;;8.40;2.35;;;15.00;71.80;;;;;;5078676;28;20087;-54
2024/01/22 10:17:18;;;;;;;4.25;1.25;;;15.00;71.60;;;;;;5081136;28;20040;-54
2024/01/22 10:19:49;;;;;;;4.53;1.10;;;15.00;71.10;;;;;;5078611;28;20093;-56
2024/01/22 10:22:20;;;;;;;6.60;1.38;;;15.10;71.20;;;;;;5077424;28;20048;-56
2024/01/22 10:25:00;;;;;;;4.78;1.15;;;15.10;71.00;;;;;;5086112;28;20038;-54
2024/01/22 10:27:27;;;;;;;5.47;1.50;;;15.10;71.10;;;;;;5082712;28;20101;-56
2024/01/22 10:30:09;;;;;;;5.07;1.45;;;15.20;71.00;;;;;;5086160;28;20036;-56
2024/01/22 10:32:36;;;;;;;;;;;15.20;70.50;;;;;;5082773;28;20118;-55
2024/01/22 10:35:03;;;;;;;6.32;1.10;;;15.20;71.10;;;;;;5085461;28;19993;-57
2024/01/22 10:37:31;;;;;;;3.63;1.15;;;15.20;70.70;;;;;;5087571;28;20048;-53
2024/01/22 10:40:08;;;;;;;4.07;0.90;;;15.30;70.80;;;;;;5087262;28;20044;-56
2024/01/22 10:42:34;;;;;;;4.15;1.23;;;15.30;70.60;;;;;;5086594;28;20501;-54
2024/01/22 10:45:07;;;;;;;3.40;0.82;;;15.30;70.80;;;;;;5088206;28;20044;-56
2024/01/22 10:47:34;;;;;;;1.90;1.00;;;15.30;70.70;;;;;;5088512;28;20068;-56
2024/01/22 10:50:03;;;;;;;4.80;0.88;;;15.30;70.70;;;;;;5086816;28;20093;-53
2024/01/22 10:52:35;;;;;;;1.98;0.63;;;15.30;70.70;;;;;;5080844;28;20120;-52
2024/01/22 10:55:02;;;;;;;2.50;0.60;;;15.30;70.70;;;;;;5093179;28;20078;-55
2024/01/22 10:57:39;;;;;;;2.47;0.95;;;15.30;70.70;;;;;;5090584;28;20498;-55
2024/01/22 11:00:10;;;;;;;1.45;0.63;;;15.30;70.60;;;;;;5089136;28;20044;-57
2024/01/22 11:02:42;;;;;;;2.35;0.73;;;15.30;70.70;;;;;;5086424;28;20054;-56
2024/01/22 11:05:15;;;;;;;3.15;1.02;;;15.30;70.80;;;;;;5091494;28;20603;-55
2024/01/22 11:07:44;;;;;;;2.50;0.95;;;15.30;70.60;;;;;;5084947;28;20101;-56
2024/01/22 11:10:14;;;;;;;1.23;0.80;;;15.30;70.80;;;;;;5086323;28;20044;-55
2024/01/22 11:12:49;;;;;;;2.45;1.10;;;15.20;70.80;;;;;;5085738;28;20591;-56
2024/01/22 11:15:16;;;;;;;1.30;0.85;;;15.20;70.80;;;;;;5083971;28;20046;-56
2024/01/22 11:17:43;;;;;;;1.70;0.80;;;15.20;71.10;;;;;;5084451;28;20047;-56
2024/01/22 11:20:15;;;;;;;1.77;0.82;;;15.20;71.00;;;;;;5083248;28;20493;-55
2024/01/22 11:22:42;;;;;;;2.40;1.00;;;15.20;71.00;;;;;;5089635;28;20033;-52
2024/01/22 11:25:10;;;;;;;2.05;0.77;;;15.10;71.00;;;;;;5088933;28;20044;-51
2024/01/22 11:27:43;;;;;;;1.88;0.50;;;15.10;71.10;;;;;;5089654;28;20032;-52
2024/01/22 11:30:27;;;;;;;1.33;1.15;;;15.10;72.00;;;;;;5090579;28;20040;-54
2024/01/22 11:32:54;;;;;;;2.05;0.80;;;15.10;71.90;;;;;;5084545;28;20094;-54
2024/01/22 11:35:36;;;;;;;6.25;0.93;;;15.00;71.80;;;;;;5090631;28;20040;-52
2024/01/22 11:38:04;;;;;;;1.50;0.73;;;15.00;72.90;;;;;;5088746;28;20044;-54
2024/01/22 11:40:52;;;;;;;2.63;0.73;;;14.80;73.10;;;;;;5086318;28;20055;-55
2024/01/22 11:43:20;;;;;;;2.75;1.20;;;14.70;73.70;;;;;;5087336;28;20488;-55
2024/01/22 11:45:56;;;;;;;3.78;1.10;;;14.60;73.80;;;;;;5084497;28;20028;-56
2024/01/22 11:48:27;;;;;;;4.70;1.52;;;14.40;74.50;;;;;;5087558;28;20131;-55
2024/01/22 11:51:00;;;;;;;4.30;1.10;;;14.30;75.40;;;;;;5083799;28;20043;-54
2024/01/22 11:53:32;;;;;;;1.77;1.08;;;14.20;76.00;;;;;;5083404;28;20036;-53
2024/01/22 11:56:04;;;;;;;3.30;1.05;;;14.20;76.30;;;;;;5086397;28;20067;-54
2024/01/22 11:58:33;;;;;;;2.72;1.20;;;14.10;76.60;;;;;;5081931;28;20040;-54
2024/01/22 12:01:00;;;;;;;5.88;1.50;;;14.10;76.50;;;;;;5082298;28;20410;-54
2024/01/22 12:03:29;;;;;;;2.83;1.17;;;14.00;76.70;;;;;;5084735;28;20505;-54
2024/01/22 12:06:07;;;;;;;6.60;1.30;;;14.00;77.10;;;;;;5084061;28;20039;-55
2024/01/22 12:08:35;;;;;;;3.22;1.00;;;14.00;77.70;;;;;;5081289;28;20043;-53
2024/01/22 12:11:08;;;;;;;3.78;1.33;;;14.00;77.40;;;;;;5088966;28;20074;-53
2024/01/22 12:13:37;;;;;;;5.63;2.08;;;14.00;77.50;;;;;;5086128;28;20036;-52
2024/01/22 12:16:04;;;;;;;6.13;2.03;;;14.00;77.30;;;;;;5085840;28;20583;-53
2024/01/22 12:18:31;;;;;;;8.02;1.60;;;14.00;77.40;;;;;;5087377;28;20043;-54
2024/01/22 12:20:58;;;;;;;8.73;2.00;;;14.00;77.20;;;;;;5104829;22;20047;-48
2024/01/22 12:23:33;;;;;;;6.95;2.35;;;14.00;77.20;;;;;;5078400;28;20045;-48
2024/01/22 12:26:01;;;;;;;6.50;2.13;;;14.10;77.20;;;;;;5079272;28;20093;-47
2024/01/22 12:28:32;;;;;;;7.07;2.07;;;14.10;77.30;;;;;;5078597;28;20050;-52
2024/01/22 12:31:00;;;;;;;7.55;1.83;;;14.10;75.40;;;;;;5056911;28;20045;-51
2024/01/22 12:33:28;;;;;;;5.03;1.27;;;14.10;74.20;;;;;;5062039;28;20394;-52
2024/01/22 12:36:10;;;;;;;8.88;1.42;;;14.10;72.10;;;;;;5062726;28;20048;-54
2024/01/22 12:38:47;;;;;;;7.63;2.00;;;13.80;72.10;;;;;;5046238;28;20036;-56
2024/01/22 12:41:14;;;;;;;9.07;1.92;;;13.60;72.30;;;;;;5049497;28;20060;-56
2024/01/22 12:43:41;;;;;;;4.85;1.52;;;13.10;74.00;;;;;;5049781;28;20059;-54
2024/01/22 12:46:10;;;;;;;6.18;1.63;;;12.70;77.30;;;;;;5080010;28;20053;-53
2024/01/22 12:48:37;;;;;;;6.93;2.38;;;12.40;79.50;;;;;;5059731;28;20045;-53
2024/01/22 12:51:08;;;;;;;12.65;2.92;;;12.10;81.00;;;;;;5063329;28;20094;-53
2024/01/22 12:53:35;;;;;;;10.55;2.53;;;11.90;82.40;;;;;;5055715;28;20045;-52
2024/01/22 12:56:05;;;;;;;11.73;3.33;;;11.80;83.80;;;;;;5062270;28;20083;-52
2024/01/22 12:58:40;;;;;;;14.90;3.63;;;11.70;84.90;;;;;;5058982;28;20095;-51
2024/01/22 13:01:07;;;;;;;18.45;3.78;;;11.60;86.10;;;;;;5049432;28;20568;-54